createdAt,value
2023-04-19T00:00:36.017Z,18.84
2023-04-19T00:03:03.672Z,18.83
2023-04-19T00:05:33.730Z,18.77
2023-04-19T00:08:04.683Z,18.73
2023-04-19T00:10:36.304Z,18.68
2023-04-19T00:13:05.932Z,18.64
2023-04-19T00:15:35.296Z,18.65
2023-04-19T00:18:03.942Z,18.60
2023-04-19T00:20:34.810Z,18.57
2023-04-19T00:23:04.929Z,18.57
2023-04-19T00:25:35.739Z,18.51
2023-04-19T00:28:06.679Z,18.52
2023-04-19T00:30:40.601Z,18.59
2023-04-19T00:33:13.274Z,18.57
2023-04-19T00:35:42.449Z,18.60
2023-04-19T00:38:09.703Z,18.59
2023-04-19T00:40:39.827Z,18.53
2023-04-19T00:43:07.185Z,18.55
2023-04-19T00:45:37.189Z,18.56
2023-04-19T00:48:09.392Z,18.59
2023-04-19T00:50:39.329Z,18.59
2023-04-19T00:53:09.302Z,18.56
2023-04-19T00:55:39.592Z,18.52
2023-04-19T00:58:11.897Z,18.52
2023-04-19T01:00:42.508Z,18.52
2023-04-19T01:03:23.689Z,18.53
2023-04-19T01:05:54.094Z,18.48
2023-04-19T01:08:30.270Z,18.47
2023-04-19T01:11:00.360Z,18.45
2023-04-19T01:13:28.285Z,18.43
2023-04-19T01:16:01.460Z,18.43
2023-04-19T01:18:40.267Z,18.40
2023-04-19T01:21:18.337Z,18.39
2023-04-19T01:23:56.334Z,18.38
2023-04-19T01:26:31.802Z,18.39
2023-04-19T01:29:02.161Z,18.42
2023-04-19T01:31:37.882Z,18.38
2023-04-19T01:34:13.501Z,18.34
2023-04-19T01:36:44.185Z,18.22
2023-04-19T01:39:28.778Z,18.24
2023-04-19T01:42:01.497Z,18.18
2023-04-19T01:44:34.978Z,18.07
2023-04-19T01:47:13.434Z,18.17
2023-04-19T01:49:45.962Z,18.18
2023-04-19T01:52:29.042Z,18.11
2023-04-19T01:55:01.374Z,18.13
2023-04-19T01:57:35.331Z,18.09
2023-04-19T02:00:07.992Z,18.01
2023-04-19T02:02:44.723Z,18.01
2023-04-19T02:05:16.586Z,17.94
2023-04-19T02:07:47.205Z,17.95
2023-04-19T02:10:17.746Z,17.97
2023-04-19T02:12:45.735Z,17.95
2023-04-19T02:15:15.567Z,17.89
2023-04-19T02:17:46.172Z,17.90
2023-04-19T02:20:15.716Z,17.94
2023-04-19T02:22:46.654Z,17.92
2023-04-19T02:25:17.080Z,17.94
2023-04-19T02:27:48.944Z,17.86
2023-04-19T02:30:18.287Z,17.87
2023-04-19T02:32:50.665Z,17.82
2023-04-19T02:35:21.382Z,17.87
2023-04-19T02:37:48.813Z,17.84
2023-04-19T02:40:23.175Z,17.85
2023-04-19T02:42:51.404Z,17.83
2023-04-19T02:45:22.657Z,17.86
2023-04-19T02:47:55.585Z,17.84
2023-04-19T02:50:24.069Z,17.80
2023-04-19T02:52:52.092Z,17.84
2023-04-19T02:55:21.184Z,17.83
2023-04-19T02:57:56.617Z,17.77
2023-04-19T03:00:27.248Z,17.69
2023-04-19T03:03:08.350Z,17.64
2023-04-19T03:05:41.190Z,17.65
2023-04-19T03:08:11.081Z,17.63
2023-04-19T03:10:38.881Z,17.59
2023-04-19T03:13:09.609Z,17.59
2023-04-19T03:15:41.249Z,17.62
2023-04-19T03:18:11.868Z,17.60
2023-04-19T03:20:43.748Z,17.50
2023-04-19T03:23:11.302Z,17.49
2023-04-19T03:25:41.600Z,17.52
2023-04-19T03:28:29.124Z,17.53
2023-04-19T03:31:13.710Z,17.52
2023-04-19T03:33:41.993Z,17.49
2023-04-19T03:36:11.260Z,17.45
2023-04-19T03:38:41.115Z,17.30
2023-04-19T03:41:23.951Z,17.41
2023-04-19T03:44:07.264Z,17.15
2023-04-19T03:46:44.688Z,17.25
2023-04-19T03:49:13.031Z,17.25
2023-04-19T03:51:43.326Z,17.18
2023-04-19T03:54:19.057Z,17.15
2023-04-19T03:56:57.222Z,17.04
2023-04-19T03:59:27.097Z,17.04
2023-04-19T04:01:58.133Z,16.84
2023-04-19T04:04:26.067Z,16.88
2023-04-19T04:06:57.473Z,17.01
2023-04-19T04:09:35.616Z,16.97
2023-04-19T04:12:06.270Z,16.89
2023-04-19T04:14:34.690Z,16.86
2023-04-19T04:17:11.735Z,16.91
2023-04-19T04:19:39.241Z,16.84
2023-04-19T04:22:10.464Z,16.83
2023-04-19T04:24:42.188Z,16.78
2023-04-19T04:27:21.813Z,16.72
2023-04-19T04:29:55.521Z,16.62
2023-04-19T04:32:36.026Z,16.68
2023-04-19T04:35:09.953Z,16.66
2023-04-19T04:37:50.228Z,16.68
2023-04-19T04:40:24.165Z,16.71
2023-04-19T04:42:54.421Z,16.73
2023-04-19T04:45:25.681Z,16.73
2023-04-19T04:47:58.452Z,16.71
2023-04-19T04:50:32.432Z,16.69
2023-04-19T04:53:02.112Z,16.73
2023-04-19T04:55:33.222Z,16.70
2023-04-19T04:58:02.796Z,16.52
2023-04-19T05:00:42.334Z,16.61
2023-04-19T05:03:25.424Z,16.55
2023-04-19T05:06:12.265Z,16.65
2023-04-19T05:08:48.907Z,16.68
2023-04-19T05:11:32.489Z,16.68
2023-04-19T05:14:21.335Z,16.74
2023-04-19T05:16:54.518Z,16.71
2023-04-19T05:19:28.356Z,16.71
2023-04-19T05:22:04.806Z,16.74
2023-04-19T05:24:57.727Z,16.68
2023-04-19T05:27:40.006Z,16.72
2023-04-19T05:30:11.800Z,16.72
2023-04-19T05:32:55.317Z,16.60
2023-04-19T05:35:32.234Z,16.73
2023-04-19T05:38:19.704Z,16.79
2023-04-19T05:41:06.866Z,16.79
2023-04-19T05:44:02.739Z,16.74
2023-04-19T05:46:51.102Z,16.76
2023-04-19T05:49:33.967Z,16.80
2023-04-19T05:52:34.979Z,16.77
2023-04-19T05:55:29.709Z,16.81
2023-04-19T05:58:23.453Z,16.76
2023-04-19T06:01:33.537Z,16.77
2023-04-19T06:04:13.414Z,16.77
2023-04-19T06:06:55.994Z,16.78
2023-04-19T06:09:35.149Z,16.74
2023-04-19T06:12:31.555Z,16.71
2023-04-19T06:15:16.338Z,16.59
2023-04-19T06:21:04.409Z,16.52
2023-04-19T06:23:50.252Z,16.75
2023-04-19T06:26:43.740Z,16.76
2023-04-19T06:29:33.314Z,16.84
2023-04-19T06:32:11.808Z,16.86
2023-04-19T06:35:01.910Z,16.87
2023-04-19T06:37:36.952Z,16.91
2023-04-19T06:40:22.857Z,16.95
2023-04-19T06:43:15.103Z,16.93
2023-04-19T06:45:49.158Z,17.09
2023-04-19T06:48:48.835Z,16.95
2023-04-19T06:51:43.750Z,17.11
2023-04-19T06:54:46.350Z,17.19
2023-04-19T06:57:34.755Z,17.18
2023-04-19T07:00:30.475Z,17.31
2023-04-19T07:03:00.714Z,17.37
2023-04-19T07:05:43.771Z,17.45
2023-04-19T07:11:30.077Z,17.61
2023-04-19T07:14:26.574Z,17.64
2023-04-19T07:17:18.345Z,17.76
2023-04-19T07:20:18.770Z,17.76
2023-04-19T07:23:17.537Z,17.78
2023-04-19T07:25:54.846Z,17.90
2023-04-19T07:28:41.607Z,17.89
2023-04-19T07:31:20.353Z,18.09
2023-04-19T07:34:04.603Z,18.19
2023-04-19T07:36:52.334Z,18.15
2023-04-19T07:39:37.461Z,18.28
2023-04-19T07:42:19.622Z,18.50
2023-04-19T07:45:10.163Z,18.51
2023-04-19T07:47:50.299Z,18.71
2023-04-19T07:50:42.652Z,18.62
2023-04-19T07:53:26.619Z,18.83
2023-04-19T07:56:07.987Z,18.79
2023-04-19T07:59:08.570Z,18.88
2023-04-19T08:01:51.088Z,19.13
2023-04-19T08:04:38.166Z,18.86
2023-04-19T08:07:16.767Z,19.36
2023-04-19T08:10:00.208Z,19.30
2023-04-19T08:12:40.618Z,19.58
2023-04-19T08:18:52.681Z,19.97
2023-04-19T08:21:41.282Z,20.16
2023-04-19T08:24:19.711Z,20.13
2023-04-19T08:27:00.237Z,20.58
2023-04-19T08:29:47.628Z,20.86
2023-04-19T08:32:31.258Z,21.02
2023-04-19T08:35:04.464Z,21.47
2023-04-19T08:38:05.208Z,21.59
2023-04-19T08:40:59.487Z,21.59
2023-04-19T08:43:34.551Z,21.54
2023-04-19T08:46:13.566Z,21.61
2023-04-19T08:48:48.658Z,21.65
2023-04-19T08:51:29.864Z,21.82
2023-04-19T08:54:20.338Z,21.77
2023-04-19T08:57:03.575Z,22.35
2023-04-19T08:59:37.810Z,22.69
2023-04-19T09:02:59.529Z,22.25
2023-04-19T09:05:40.992Z,22.52
2023-04-19T09:08:34.732Z,23.32
2023-04-19T09:11:18.261Z,23.86
2023-04-19T09:14:28.311Z,23.86
2023-04-19T09:17:21.497Z,24.20
2023-04-19T09:19:59.407Z,24.19
2023-04-19T09:22:49.520Z,24.44
2023-04-19T09:28:18.042Z,24.55
2023-04-19T09:31:02.355Z,24.69
2023-04-19T09:33:42.076Z,24.32
2023-04-19T09:36:33.964Z,24.15
2023-04-19T09:39:39.300Z,24.25
2023-04-19T09:42:47.446Z,24.60
2023-04-19T09:45:54.552Z,25.11
2023-04-19T09:48:40.207Z,25.02
2023-04-19T09:51:54.914Z,24.84
2023-04-19T09:54:46.295Z,24.74
2023-04-19T09:57:49.811Z,24.72
2023-04-19T10:00:22.529Z,25.00
2023-04-19T10:03:02.716Z,25.07
2023-04-19T10:05:52.969Z,25.07
2023-04-19T10:08:35.705Z,24.71
2023-04-19T10:11:24.842Z,24.72
2023-04-19T10:14:30.061Z,23.95
2023-04-19T10:17:16.720Z,24.49
2023-04-19T10:20:07.581Z,25.16
2023-04-19T10:22:49.026Z,25.03
2023-04-19T10:25:46.049Z,25.02
2023-04-19T10:28:24.834Z,24.65
2023-04-19T10:31:05.591Z,25.18
2023-04-19T10:33:46.808Z,24.96
2023-04-19T10:36:33.935Z,23.81
2023-04-19T10:40:05.645Z,23.05
2023-04-19T10:43:17.933Z,24.20
2023-04-19T10:45:53.886Z,24.62
2023-04-19T10:49:15.408Z,23.99
2023-04-19T10:51:58.290Z,23.57
2023-04-19T10:54:56.259Z,23.82
2023-04-19T10:58:06.697Z,23.44
2023-04-19T11:00:44.392Z,23.70
2023-04-19T11:03:55.368Z,23.37
2023-04-19T11:07:04.324Z,23.31
2023-04-19T11:09:46.206Z,23.72
2023-04-19T11:12:19.399Z,23.75
2023-04-19T11:14:57.931Z,24.16
2023-04-19T11:17:57.841Z,24.29
2023-04-19T11:20:45.585Z,24.85
2023-04-19T11:23:30.607Z,23.95
2023-04-19T11:26:40.839Z,24.31
2023-04-19T11:29:26.628Z,24.27
2023-04-19T11:35:10.938Z,24.63
2023-04-19T11:37:50.001Z,24.34
2023-04-19T11:40:48.916Z,24.90
2023-04-19T11:43:47.037Z,25.42
2023-04-19T11:46:34.983Z,25.33
2023-04-19T11:49:34.499Z,24.07
2023-04-19T11:52:42.151Z,24.62
2023-04-19T11:55:28.573Z,25.10
2023-04-19T11:57:56.861Z,24.51
2023-04-19T12:01:07.322Z,24.59
2023-04-19T12:04:10.571Z,24.27
2023-04-19T12:07:01.132Z,24.45
2023-04-19T12:09:52.313Z,24.61
2023-04-19T12:15:49.494Z,25.01
2023-04-19T12:18:55.325Z,24.90
2023-04-19T12:21:34.013Z,25.25
2023-04-19T12:24:12.832Z,25.27
2023-04-19T12:27:09.179Z,24.77
2023-04-19T12:29:49.131Z,24.50
2023-04-19T12:32:51.752Z,24.57
2023-04-19T12:35:32.242Z,24.16
2023-04-19T12:38:29.683Z,23.67
2023-04-19T12:41:25.588Z,23.66
2023-04-19T12:43:58.163Z,24.14
2023-04-19T12:46:43.180Z,24.10
2023-04-19T12:49:45.686Z,23.85
2023-04-19T12:52:19.302Z,23.76
2023-04-19T12:54:54.546Z,23.70
2023-04-19T12:57:43.717Z,23.92
2023-04-19T13:00:20.447Z,23.89
2023-04-19T13:02:57.241Z,24.16
2023-04-19T13:05:32.236Z,24.22
2023-04-19T13:08:12.085Z,23.47
2023-04-19T13:11:07.762Z,23.54
2023-04-19T13:13:46.810Z,23.60
2023-04-19T13:16:23.806Z,23.13
2023-04-19T13:19:37.860Z,23.30
2023-04-19T13:22:11.175Z,23.32
2023-04-19T13:24:41.894Z,23.34
2023-04-19T13:27:22.353Z,23.35
2023-04-19T13:29:56.958Z,23.59
2023-04-19T13:32:37.073Z,23.42
2023-04-19T13:35:24.910Z,23.42
2023-04-19T13:38:09.886Z,23.20
2023-04-19T13:40:55.788Z,23.05
2023-04-19T13:43:36.344Z,23.00
2023-04-19T13:46:08.052Z,23.29
2023-04-19T13:48:51.888Z,23.13
2023-04-19T13:51:42.778Z,23.13
2023-04-19T13:54:28.946Z,22.95
2023-04-19T13:57:08.604Z,23.01
2023-04-19T13:59:50.355Z,22.66
2023-04-19T14:02:27.666Z,22.50
2023-04-19T14:04:58.148Z,22.68
2023-04-19T14:07:40.672Z,22.66
2023-04-19T14:10:12.745Z,22.77
2023-04-19T14:12:40.078Z,22.87
2023-04-19T14:15:28.089Z,22.30
2023-04-19T14:18:11.383Z,22.83
2023-04-19T14:20:53.914Z,22.53
2023-04-19T14:23:36.734Z,22.62
2023-04-19T14:26:22.670Z,22.73
2023-04-19T14:28:55.403Z,22.02
2023-04-19T14:32:13.486Z,22.38
2023-04-19T14:34:54.736Z,22.28
2023-04-19T14:37:32.824Z,22.69
2023-04-19T14:40:17.657Z,22.35
2023-04-19T14:43:22.613Z,22.83
2023-04-19T14:46:09.351Z,22.72
2023-04-19T14:48:48.886Z,22.79
2023-04-19T14:51:49.536Z,22.60
2023-04-19T14:55:01.096Z,22.54
2023-04-19T14:57:57.929Z,22.74
2023-04-19T15:00:34.077Z,22.68
2023-04-19T15:03:07.987Z,22.64
2023-04-19T15:05:49.507Z,22.36
2023-04-19T15:08:30.223Z,22.08
2023-04-19T15:11:13.223Z,22.08
2023-04-19T15:13:44.457Z,22.12
2023-04-19T15:16:20.443Z,21.96
2023-04-19T15:18:47.877Z,22.10
2023-04-19T15:21:17.937Z,21.51
2023-04-19T15:26:40.376Z,21.71
2023-04-19T15:29:16.861Z,22.12
2023-04-19T15:31:55.719Z,22.31
2023-04-19T15:34:53.136Z,22.02
2023-04-19T15:37:33.824Z,22.13
2023-04-19T15:40:13.258Z,21.92
2023-04-19T15:42:49.183Z,22.27
2023-04-19T15:45:22.872Z,22.46
2023-04-19T15:47:56.403Z,22.26
2023-04-19T15:50:33.463Z,22.04
2023-04-19T15:53:08.141Z,22.15
2023-04-19T15:55:50.504Z,22.38
2023-04-19T15:58:23.456Z,21.61
2023-04-19T16:00:56.316Z,21.75
2023-04-19T16:03:27.142Z,21.73
2023-04-19T16:05:59.694Z,21.86
2023-04-19T16:08:31.933Z,22.29
2023-04-19T16:11:09.828Z,22.00
2023-04-19T16:13:45.529Z,21.94
2023-04-19T16:16:20.943Z,21.99
2023-04-19T16:18:51.594Z,21.83
2023-04-19T16:21:29.789Z,21.78
2023-04-19T16:24:06.553Z,21.94
2023-04-19T16:26:34.311Z,21.34
2023-04-19T16:29:04.603Z,21.17
2023-04-19T16:31:43.992Z,21.19
2023-04-19T16:34:21.455Z,21.21
2023-04-19T16:36:49.371Z,21.02
2023-04-19T16:39:26.459Z,21.30
2023-04-19T16:41:54.017Z,20.96
2023-04-19T16:44:30.243Z,21.18
2023-04-19T16:47:34.731Z,20.62
2023-04-19T16:50:29.730Z,20.94
2023-04-19T16:53:54.926Z,20.62
2023-04-19T16:56:59.161Z,20.78
2023-04-19T16:59:50.235Z,20.45
2023-04-19T17:02:31.246Z,20.92
2023-04-19T17:05:35.089Z,20.56
2023-04-19T17:08:22.424Z,20.89
2023-04-19T17:10:57.006Z,21.00
2023-04-19T17:13:40.178Z,21.08
2023-04-19T17:16:34.636Z,20.85
2023-04-19T17:19:27.819Z,20.59
2023-04-19T17:22:56.233Z,20.44
2023-04-19T17:25:39.809Z,20.02
2023-04-19T17:28:17.645Z,20.16
2023-04-19T17:30:55.636Z,20.15
2023-04-19T17:33:58.361Z,20.12
2023-04-19T17:36:35.193Z,20.33
2023-04-19T17:39:18.392Z,20.18
2023-04-19T17:42:03.047Z,20.31
2023-04-19T17:44:56.355Z,20.31
2023-04-19T17:47:37.651Z,20.16
2023-04-19T17:50:35.054Z,20.03
2023-04-19T17:53:15.684Z,19.99
2023-04-19T17:55:57.457Z,19.92
2023-04-19T17:58:29.137Z,19.91
2023-04-19T18:01:01.799Z,19.76
2023-04-19T18:03:38.003Z,19.98
2023-04-19T18:06:26.487Z,19.85
2023-04-19T18:09:01.454Z,19.77
2023-04-19T18:12:17.458Z,19.90
2023-04-19T18:15:09.138Z,19.95
2023-04-19T18:18:01.881Z,19.99
2023-04-19T18:20:44.682Z,20.01
2023-04-19T18:23:26.386Z,19.85
2023-04-19T18:26:12.278Z,19.84
2023-04-19T18:29:00.876Z,20.08
2023-04-19T18:31:34.092Z,20.04
2023-04-19T18:34:04.122Z,20.06
2023-04-19T18:36:41.713Z,19.86
2023-04-19T18:39:13.489Z,20.00
2023-04-19T18:41:53.067Z,20.07
2023-04-19T18:44:44.065Z,20.27
2023-04-19T18:47:32.211Z,20.07
2023-04-19T18:50:25.424Z,19.97
2023-04-19T18:53:09.385Z,20.01
2023-04-19T18:55:45.090Z,19.88
2023-04-19T18:58:36.515Z,19.54
2023-04-19T19:01:30.610Z,19.36
2023-04-19T19:04:23.880Z,19.40
2023-04-19T19:07:17.987Z,19.38
2023-04-19T19:10:21.817Z,19.09
2023-04-19T19:13:23.014Z,19.33
2023-04-19T19:16:12.109Z,19.49
2023-04-19T19:19:01.692Z,19.70
2023-04-19T19:21:52.343Z,19.80
2023-04-19T19:24:57.661Z,19.86
2023-04-19T19:27:37.872Z,19.77
2023-04-19T19:30:46.873Z,20.06
2023-04-19T19:33:32.991Z,19.75
2023-04-19T19:36:20.166Z,19.80
2023-04-19T19:39:16.036Z,19.47
2023-04-19T19:42:05.236Z,19.50
2023-04-19T19:45:02.597Z,19.82
2023-04-19T19:47:45.387Z,19.97
2023-04-19T19:51:01.072Z,19.97
2023-04-19T19:53:18.861Z,19.77
2023-04-19T19:56:00.506Z,19.94
2023-04-19T19:58:49.759Z,20.11
2023-04-19T20:01:32.457Z,20.08
2023-04-19T20:04:08.007Z,20.07
2023-04-19T20:09:47.143Z,20.05
2023-04-19T20:12:33.098Z,19.37
2023-04-19T20:15:19.842Z,19.52
2023-04-19T20:18:06.595Z,19.51
2023-04-19T20:20:38.536Z,19.40
2023-04-19T20:23:30.366Z,19.39
2023-04-19T20:26:16.351Z,19.67
2023-04-19T20:29:01.307Z,19.61
2023-04-19T20:31:49.410Z,19.90
2023-04-19T20:34:23.966Z,20.03
2023-04-19T20:39:58.706Z,20.21
2023-04-19T20:42:40.034Z,20.24
2023-04-19T20:45:15.958Z,20.08
2023-04-19T20:47:55.913Z,20.16
2023-04-19T20:50:41.572Z,20.01
2023-04-19T20:53:20.832Z,19.88
2023-04-19T20:56:12.517Z,19.86
2023-04-19T20:58:48.302Z,19.87
2023-04-19T21:01:23.115Z,19.78
2023-04-19T21:06:49.236Z,19.84
2023-04-19T21:09:43.891Z,19.88
2023-04-19T21:12:31.758Z,19.91
2023-04-19T21:15:20.122Z,20.08
2023-04-19T21:18:08.193Z,20.01
2023-04-19T21:20:55.569Z,19.84
2023-04-19T21:23:39.258Z,20.01
2023-04-19T21:26:16.720Z,20.10
2023-04-19T21:29:06.466Z,20.19
2023-04-19T21:31:50.792Z,20.23
2023-04-19T21:34:38.570Z,20.24
2023-04-19T21:37:23.016Z,20.25
2023-04-19T21:40:09.765Z,20.28
2023-04-19T21:42:48.858Z,20.33
2023-04-19T21:45:49.632Z,20.35
2023-04-19T21:48:22.944Z,20.35
2023-04-19T21:51:06.668Z,20.39
2023-04-19T21:53:44.998Z,20.36
2023-04-19T21:56:20.105Z,20.39
2023-04-19T21:58:58.058Z,20.39
2023-04-19T22:01:43.202Z,20.34
2023-04-19T22:04:36.979Z,20.29
2023-04-19T22:07:30.495Z,20.31
2023-04-19T22:10:14.171Z,20.36
2023-04-19T22:13:06.335Z,20.24
2023-04-19T22:15:42.988Z,20.23
2023-04-19T22:18:23.727Z,20.24
2023-04-19T22:21:16.998Z,20.18
2023-04-19T22:23:52.644Z,20.23
2023-04-19T22:26:29.732Z,20.26
2023-04-19T22:28:59.238Z,20.23
2023-04-19T22:31:31.750Z,20.26
2023-04-19T22:33:58.996Z,20.18
2023-04-19T22:36:29.567Z,20.24
2023-04-19T22:39:02.778Z,20.25
2023-04-19T22:41:29.953Z,20.21
2023-04-19T22:44:01.590Z,20.19
2023-04-19T22:46:31.466Z,20.15
2023-04-19T22:49:03.463Z,20.16
2023-04-19T22:51:31.132Z,20.15
2023-04-19T22:53:59.604Z,20.13
2023-04-19T22:56:29.215Z,20.06
2023-04-19T22:58:57.893Z,20.08
2023-04-19T23:01:31.530Z,20.02
2023-04-19T23:04:09.098Z,20.03
2023-04-19T23:06:37.122Z,20.01
2023-04-19T23:09:04.527Z,19.91
2023-04-19T23:11:33.740Z,19.88
2023-04-19T23:14:04.733Z,19.85
2023-04-19T23:16:33.562Z,19.85
2023-04-19T23:19:02.910Z,19.84
2023-04-19T23:21:32.664Z,19.84
2023-04-19T23:24:02.691Z,19.80
2023-04-19T23:26:32.096Z,19.76
2023-04-19T23:28:59.644Z,19.70
2023-04-19T23:31:30.002Z,19.67
2023-04-19T23:34:00.236Z,19.64
2023-04-19T23:36:34.204Z,19.63
2023-04-19T23:39:13.087Z,19.60
2023-04-19T23:41:40.385Z,19.62
2023-04-19T23:44:07.713Z,19.60
2023-04-19T23:46:44.442Z,19.59
2023-04-19T23:49:12.402Z,19.59
2023-04-19T23:51:44.445Z,19.53
2023-04-19T23:54:14.889Z,19.56
2023-04-19T23:56:45.617Z,19.47
